sensor_id;sensor_type;location;lat;lon;timestamp;pressure;altitude;pressure_sealevel;temperature;humidity
35519;BME280;21627;48.216;16.482;2023-04-25T00:01:12;99044.16;;;9.56;100.00
35519;BME280;21627;48.216;16.482;2023-04-25T00:03:40;99034.66;;;9.54;100.00
35519;BME280;21627;48.216;16.482;2023-04-25T00:06:07;99050.09;;;9.64;100.00
35519;BME280;21627;48.216;16.482;2023-04-25T00:08:35;99042.44;;;9.53;100.00
35519;BME280;21627;48.216;16.482;2023-04-25T00:11:02;99033.00;;;9.50;100.00
35519;BME280;21627;48.216;16.482;2023-04-25T00:13:29;99022.69;;;9.47;100.00
35519;BME280;21627;48.216;16.482;2023-04-25T00:15:56;99023.53;;;9.51;100.00
35519;BME280;21627;48.216;16.482;2023-04-25T00:18:25;99038.13;;;9.55;100.00
35519;BME280;21627;48.216;16.482;2023-04-25T00:20:52;99043.19;;;9.66;100.00
35519;BME280;21627;48.216;16.482;2023-04-25T00:23:19;99030.34;;;9.58;100.00
35519;BME280;21627;48.216;16.482;2023-04-25T00:25:48;99032.16;;;9.50;100.00
35519;BME280;21627;48.216;16.482;2023-04-25T00:28:16;99027.00;;;9.44;100.00
35519;BME280;21627;48.216;16.482;2023-04-25T00:30:43;99028.69;;;9.51;100.00
35519;BME280;21627;48.216;16.482;2023-04-25T00:33:10;99018.44;;;9.43;100.00
35519;BME280;21627;48.216;16.482;2023-04-25T00:35:38;99019.22;;;9.53;100.00
35519;BME280;21627;48.216;16.482;2023-04-25T00:38:05;99029.56;;;9.50;100.00
35519;BME280;21627;48.216;16.482;2023-04-25T00:40:32;99019.28;;;9.44;100.00
35519;BME280;21627;48.216;16.482;2023-04-25T00:42:59;99030.41;;;9.49;100.00
35519;BME280;21627;48.216;16.482;2023-04-25T00:45:30;99008.91;;;9.47;100.00
35519;BME280;21627;48.216;16.482;2023-04-25T00:47:57;99020.13;;;9.44;100.00
35519;BME280;21627;48.216;16.482;2023-04-25T00:50:24;99023.50;;;9.54;100.00
35519;BME280;21627;48.216;16.482;2023-04-25T00:52:52;99020.09;;;9.50;100.00
35519;BME280;21627;48.216;16.482;2023-04-25T00:55:19;99018.38;;;9.51;100.00
35519;BME280;21627;48.216;16.482;2023-04-25T00:57:47;99018.41;;;9.48;100.00
35519;BME280;21627;48.216;16.482;2023-04-25T01:00:14;99020.13;;;9.44;100.00
35519;BME280;21627;48.216;16.482;2023-04-25T01:02:42;99018.44;;;9.43;100.00
35519;BME280;21627;48.216;16.482;2023-04-25T01:05:10;99019.25;;;9.50;100.00
35519;BME280;21627;48.216;16.482;2023-04-25T01:07:39;99013.25;;;9.48;100.00
35519;BME280;21627;48.216;16.482;2023-04-25T01:10:07;99005.44;;;9.54;100.00
35519;BME280;21627;48.216;16.482;2023-04-25T01:12:34;99007.16;;;9.52;100.00
35519;BME280;21627;48.216;16.482;2023-04-25T01:15:02;99008.88;;;9.54;100.00
35519;BME280;21627;48.216;16.482;2023-04-25T01:17:29;99017.34;;;9.70;98.60
35519;BME280;21627;48.216;16.482;2023-04-25T01:19:58;99015.66;;;9.68;99.45
35519;BME280;21627;48.216;16.482;2023-04-25T01:22:25;99013.03;;;9.71;100.00
35519;BME280;21627;48.216;16.482;2023-04-25T01:24:53;99015.63;;;9.69;97.67
35519;BME280;21627;48.216;16.482;2023-04-25T01:27:21;99014.72;;;9.77;94.46
35519;BME280;21627;48.216;16.482;2023-04-25T01:29:50;99008.66;;;9.78;94.93
35519;BME280;21627;48.216;16.482;2023-04-25T01:32:18;99011.28;;;9.74;97.49
35519;BME280;21627;48.216;16.482;2023-04-25T01:34:46;99014.72;;;9.75;96.37
35519;BME280;21627;48.216;16.482;2023-04-25T01:37:13;99006.22;;;9.64;99.16
35519;BME280;21627;48.216;16.482;2023-04-25T01:39:40;99012.25;;;9.63;97.23
35519;BME280;21627;48.216;16.482;2023-04-25T01:42:08;99003.63;;;9.62;97.84
35519;BME280;21627;48.216;16.482;2023-04-25T01:44:35;98994.25;;;9.53;97.81
35519;BME280;21627;48.216;16.482;2023-04-25T01:47:02;99009.63;;;9.70;92.68
35519;BME280;21627;48.216;16.482;2023-04-25T01:49:29;99010.50;;;9.68;93.81
35519;BME280;21627;48.216;16.482;2023-04-25T01:51:56;98990.63;;;9.74;89.44
35519;BME280;21627;48.216;16.482;2023-04-25T01:54:24;98994.13;;;9.69;93.81
35519;BME280;21627;48.216;16.482;2023-04-25T01:56:51;98992.41;;;9.71;91.90
35519;BME280;21627;48.216;16.482;2023-04-25T01:59:18;98997.56;;;9.71;89.81
35519;BME280;21627;48.216;16.482;2023-04-25T02:01:47;98995.00;;;9.68;91.78
35519;BME280;21627;48.216;16.482;2023-04-25T02:04:14;99005.16;;;9.85;88.23
35519;BME280;21627;48.216;16.482;2023-04-25T02:06:42;98994.06;;;9.75;91.38
35519;BME280;21627;48.216;16.482;2023-04-25T02:09:09;98995.00;;;9.66;92.96
35519;BME280;21627;48.216;16.482;2023-04-25T02:11:36;99008.78;;;9.67;92.74
35519;BME280;21627;48.216;16.482;2023-04-25T02:14:03;99004.41;;;9.72;90.74
35519;BME280;21627;48.216;16.482;2023-04-25T02:16:30;99004.41;;;9.73;88.09
35519;BME280;21627;48.216;16.482;2023-04-25T02:18:58;99007.81;;;9.79;88.92
35519;BME280;21627;48.216;16.482;2023-04-25T02:21:25;99004.38;;;9.78;87.64
35519;BME280;21627;48.216;16.482;2023-04-25T02:23:53;99002.63;;;9.82;89.23
35519;BME280;21627;48.216;16.482;2023-04-25T02:26:20;98993.25;;;9.73;89.11
35519;BME280;21627;48.216;16.482;2023-04-25T02:28:51;98999.28;;;9.67;92.20
35519;BME280;21627;48.216;16.482;2023-04-25T02:31:18;98995.75;;;9.81;87.25
35519;BME280;21627;48.216;16.482;2023-04-25T02:33:47;98995.00;;;9.68;89.21
35519;BME280;21627;48.216;16.482;2023-04-25T02:36:14;99004.47;;;9.70;90.33
35519;BME280;21627;48.216;16.482;2023-04-25T02:38:42;98995.94;;;9.61;91.10
35519;BME280;21627;48.216;16.482;2023-04-25T02:41:09;99006.97;;;9.75;87.76
35519;BME280;21627;48.216;16.482;2023-04-25T02:43:36;99006.16;;;9.70;91.06
35519;BME280;21627;48.216;16.482;2023-04-25T02:46:03;99001.94;;;9.60;92.20
35519;BME280;21627;48.216;16.482;2023-04-25T02:48:30;99000.31;;;9.49;94.86
35519;BME280;21627;48.216;16.482;2023-04-25T02:50:57;99004.53;;;9.61;91.27
35519;BME280;21627;48.216;16.482;2023-04-25T02:53:24;98989.97;;;9.52;92.81
35519;BME280;21627;48.216;16.482;2023-04-25T02:55:51;98999.44;;;9.50;92.62
35519;BME280;21627;48.216;16.482;2023-04-25T02:58:19;98995.19;;;9.43;94.85
35519;BME280;21627;48.216;16.482;2023-04-25T03:00:46;98989.22;;;9.38;96.53
35519;BME280;21627;48.216;16.482;2023-04-25T03:03:14;98993.53;;;9.38;96.84
35519;BME280;21627;48.216;16.482;2023-04-25T03:05:44;98993.47;;;9.44;95.41
35519;BME280;21627;48.216;16.482;2023-04-25T03:08:13;98984.91;;;9.39;95.39
35519;BME280;21627;48.216;16.482;2023-04-25T03:10:40;98991.78;;;9.40;95.79
35519;BME280;21627;48.216;16.482;2023-04-25T03:13:08;98990.13;;;9.29;96.17
35519;BME280;21627;48.216;16.482;2023-04-25T03:15:36;98991.00;;;9.27;97.28
35519;BME280;21627;48.216;16.482;2023-04-25T03:18:03;99001.38;;;9.22;99.19
35519;BME280;21627;48.216;16.482;2023-04-25T03:20:30;98998.81;;;9.22;95.90
35519;BME280;21627;48.216;16.482;2023-04-25T03:22:57;98999.66;;;9.23;96.14
35519;BME280;21627;48.216;16.482;2023-04-25T03:25:25;98992.81;;;9.17;98.39
35519;BME280;21627;48.216;16.482;2023-04-25T03:27:52;98996.28;;;9.13;97.99
35519;BME280;21627;48.216;16.482;2023-04-25T03:30:19;99012.56;;;9.20;97.31
35519;BME280;21627;48.216;16.482;2023-04-25T03:32:46;99003.97;;;9.16;95.96
35519;BME280;21627;48.216;16.482;2023-04-25T03:35:14;99009.13;;;9.15;97.19
35519;BME280;21627;48.216;16.482;2023-04-25T03:37:41;99008.31;;;9.11;95.88
35519;BME280;21627;48.216;16.482;2023-04-25T03:40:12;99004.03;;;9.08;97.01
35519;BME280;21627;48.216;16.482;2023-04-25T03:42:39;99014.38;;;9.04;97.51
35519;BME280;21627;48.216;16.482;2023-04-25T03:45:07;99004.91;;;9.04;97.76
35519;BME280;21627;48.216;16.482;2023-04-25T03:47:35;99015.25;;;9.03;98.38
35519;BME280;21627;48.216;16.482;2023-04-25T03:50:02;99014.41;;;8.96;98.70
35519;BME280;21627;48.216;16.482;2023-04-25T03:52:29;99025.59;;;9.00;98.45
35519;BME280;21627;48.216;16.482;2023-04-25T03:54:56;99023.84;;;9.03;98.13
35519;BME280;21627;48.216;16.482;2023-04-25T03:57:23;99018.75;;;8.93;99.79
35519;BME280;21627;48.216;16.482;2023-04-25T03:59:51;99016.16;;;8.97;99.64
35519;BME280;21627;48.216;16.482;2023-04-25T04:02:18;99031.63;;;8.96;100.00
35519;BME280;21627;48.216;16.482;2023-04-25T04:04:46;99020.47;;;8.91;100.00
35519;BME280;21627;48.216;16.482;2023-04-25T04:07:13;99035.09;;;8.87;100.00
35519;BME280;21627;48.216;16.482;2023-04-25T04:09:40;99036.81;;;8.85;100.00
35519;BME280;21627;48.216;16.482;2023-04-25T04:12:07;99033.41;;;8.83;100.00
35519;BME280;21627;48.216;16.482;2023-04-25T04:14:35;99035.97;;;8.77;100.00
35519;BME280;21627;48.216;16.482;2023-04-25T04:17:02;99047.16;;;8.80;100.00
35519;BME280;21627;48.216;16.482;2023-04-25T04:19:29;99042.00;;;8.80;100.00
35519;BME280;21627;48.216;16.482;2023-04-25T04:21:56;99041.13;;;8.77;100.00
35519;BME280;21627;48.216;16.482;2023-04-25T04:24:23;99047.16;;;8.79;100.00
35519;BME280;21627;48.216;16.482;2023-04-25T04:26:50;99043.72;;;8.74;100.00
35519;BME280;21627;48.216;16.482;2023-04-25T04:29:18;99047.19;;;8.73;100.00
35519;BME280;21627;48.216;16.482;2023-04-25T04:31:51;99046.31;;;8.69;100.00
35519;BME280;21627;48.216;16.482;2023-04-25T04:34:19;99040.31;;;8.70;100.00
35519;BME280;21627;48.216;16.482;2023-04-25T04:36:47;99044.59;;;8.76;100.00
35519;BME280;21627;48.216;16.482;2023-04-25T04:39:14;99045.41;;;8.79;98.98
35519;BME280;21627;48.216;16.482;2023-04-25T04:41:41;99042.88;;;8.76;99.58
35519;BME280;21627;48.216;16.482;2023-04-25T04:44:09;99039.44;;;8.73;96.36
35519;BME280;21627;48.216;16.482;2023-04-25T04:46:37;99056.59;;;8.81;98.33
35519;BME280;21627;48.216;16.482;2023-04-25T04:49:10;99045.44;;;8.72;99.62
35519;BME280;21627;48.216;16.482;2023-04-25T04:51:38;99027.47;;;8.61;100.00
35519;BME280;21627;48.216;16.482;2023-04-25T04:54:05;99060.91;;;8.73;98.75
35519;BME280;21627;48.216;16.482;2023-04-25T04:56:32;99058.31;;;8.76;97.84
35519;BME280;21627;48.216;16.482;2023-04-25T04:58:59;99054.91;;;8.71;100.00
35519;BME280;21627;48.216;16.482;2023-04-25T05:01:27;99056.63;;;8.71;99.95
35519;BME280;21627;48.216;16.482;2023-04-25T05:03:54;99054.91;;;8.66;100.00
35519;BME280;21627;48.216;16.482;2023-04-25T05:06:27;99060.09;;;8.63;100.00
35519;BME280;21627;48.216;16.482;2023-04-25T05:08:57;99039.50;;;8.56;100.00
35519;BME280;21627;48.216;16.482;2023-04-25T05:11:27;99050.66;;;8.65;100.00
35519;BME280;21627;48.216;16.482;2023-04-25T05:13:54;99048.06;;;8.69;100.00
35519;BME280;21627;48.216;16.482;2023-04-25T05:16:21;99032.53;;;8.81;100.00
35519;BME280;21627;48.216;16.482;2023-04-25T05:18:49;99043.72;;;8.78;100.00
35519;BME280;21627;48.216;16.482;2023-04-25T05:21:16;99043.81;;;8.60;100.00
35519;BME280;21627;48.216;16.482;2023-04-25T05:23:43;99052.34;;;8.66;99.83
35519;BME280;21627;48.216;16.482;2023-04-25T05:26:10;99051.50;;;8.61;99.43
35519;BME280;21627;48.216;16.482;2023-04-25T05:28:41;99046.38;;;8.54;100.00
35519;BME280;21627;48.216;16.482;2023-04-25T05:31:12;99053.25;;;8.53;100.00
35519;BME280;21627;48.216;16.482;2023-04-25T05:33:39;99046.41;;;8.43;100.00
35519;BME280;21627;48.216;16.482;2023-04-25T05:36:07;99049.84;;;8.43;100.00
35519;BME280;21627;48.216;16.482;2023-04-25T05:38:34;99049.00;;;8.37;100.00
35519;BME280;21627;48.216;16.482;2023-04-25T05:41:02;99050.72;;;8.41;100.00
35519;BME280;21627;48.216;16.482;2023-04-25T05:43:29;99046.44;;;8.40;99.92
35519;BME280;21627;48.216;16.482;2023-04-25T05:45:56;99041.25;;;8.38;100.00
35519;BME280;21627;48.216;16.482;2023-04-25T05:48:23;99061.00;;;8.50;100.00
35519;BME280;21627;48.216;16.482;2023-04-25T05:50:50;99047.28;;;8.45;99.13
35519;BME280;21627;48.216;16.482;2023-04-25T05:53:20;99056.72;;;8.46;99.99
35519;BME280;21627;48.216;16.482;2023-04-25T05:55:48;99053.25;;;8.55;100.00
35519;BME280;21627;48.216;16.482;2023-04-25T05:58:17;99051.50;;;8.61;100.00
35519;BME280;21627;48.216;16.482;2023-04-25T06:00:44;99056.63;;;8.74;100.00
35519;BME280;21627;48.216;16.482;2023-04-25T06:03:12;99054.03;;;8.77;100.00
35519;BME280;21627;48.216;16.482;2023-04-25T06:05:45;99051.34;;;8.97;98.09
35519;BME280;21627;48.216;16.482;2023-04-25T06:08:12;99045.28;;;9.12;97.62
35519;BME280;21627;48.216;16.482;2023-04-25T06:10:39;99050.34;;;9.27;94.54
35519;BME280;21627;48.216;16.482;2023-04-25T06:13:07;99038.28;;;9.29;95.21
35519;BME280;21627;48.216;16.482;2023-04-25T06:15:34;99047.72;;;9.38;98.12
35519;BME280;21627;48.216;16.482;2023-04-25T06:18:01;99040.72;;;9.53;94.90
35519;BME280;21627;48.216;16.482;2023-04-25T06:20:29;99026.97;;;9.53;95.87
35519;BME280;21627;48.216;16.482;2023-04-25T06:22:56;99019.16;;;9.61;92.19
35519;BME280;21627;48.216;16.482;2023-04-25T06:25:24;99036.19;;;9.83;91.61
35519;BME280;21627;48.216;16.482;2023-04-25T06:27:51;99028.28;;;9.99;93.34
35519;BME280;21627;48.216;16.482;2023-04-25T06:30:18;99030.72;;;10.12;89.39
35519;BME280;21627;48.216;16.482;2023-04-25T06:32:49;99031.53;;;10.21;90.09
35519;BME280;21627;48.216;16.482;2023-04-25T06:35:16;99021.97;;;10.33;90.80
35519;BME280;21627;48.216;16.482;2023-04-25T06:37:43;99035.56;;;10.51;86.05
35519;BME280;21627;48.216;16.482;2023-04-25T06:40:11;99023.34;;;10.60;84.75
35519;BME280;21627;48.216;16.482;2023-04-25T06:42:38;99027.53;;;10.72;86.92
35519;BME280;21627;48.216;16.482;2023-04-25T06:45:06;99020.56;;;10.77;83.05
35519;BME280;21627;48.216;16.482;2023-04-25T06:47:33;99029.00;;;10.92;82.47
35519;BME280;21627;48.216;16.482;2023-04-25T06:50:00;99018.41;;;11.10;79.79
35519;BME280;21627;48.216;16.482;2023-04-25T06:52:28;99025.91;;;11.29;77.76
35519;BME280;21627;48.216;16.482;2023-04-25T06:54:55;99016.19;;;11.44;75.79
35519;BME280;21627;48.216;16.482;2023-04-25T06:57:22;99013.50;;;11.51;77.15
35519;BME280;21627;48.216;16.482;2023-04-25T06:59:49;99008.34;;;11.49;78.57
35519;BME280;21627;48.216;16.482;2023-04-25T07:02:16;99020.06;;;11.72;76.88
35519;BME280;21627;48.216;16.482;2023-04-25T07:04:43;99014.00;;;11.73;76.32
35519;BME280;21627;48.216;16.482;2023-04-25T07:07:12;99005.94;;;11.91;72.81
35519;BME280;21627;48.216;16.482;2023-04-25T07:09:39;99023.13;;;11.97;73.97
35519;BME280;21627;48.216;16.482;2023-04-25T07:12:06;99014.28;;;12.08;75.33
35519;BME280;21627;48.216;16.482;2023-04-25T07:14:33;99016.66;;;12.21;76.54
35519;BME280;21627;48.216;16.482;2023-04-25T07:17:00;99011.16;;;12.38;74.69
35519;BME280;21627;48.216;16.482;2023-04-25T07:19:28;99017.94;;;12.45;72.47
35519;BME280;21627;48.216;16.482;2023-04-25T07:21:56;99013.38;;;12.58;71.18
35519;BME280;21627;48.216;16.482;2023-04-25T07:24:23;98999.44;;;12.62;76.15
35519;BME280;21627;48.216;16.482;2023-04-25T07:26:50;99003.53;;;12.73;72.66
35519;BME280;21627;48.216;16.482;2023-04-25T07:29:17;99006.13;;;12.73;71.42
35519;BME280;21627;48.216;16.482;2023-04-25T07:31:45;99011.88;;;12.88;72.37
35519;BME280;21627;48.216;16.482;2023-04-25T07:34:12;99012.28;;;13.08;73.13
35519;BME280;21627;48.216;16.482;2023-04-25T07:36:39;98998.00;;;13.29;72.31
35519;BME280;21627;48.216;16.482;2023-04-25T07:39:07;98999.38;;;13.46;69.39
35519;BME280;21627;48.216;16.482;2023-04-25T07:41:35;99004.84;;;13.69;70.28
35519;BME280;21627;48.216;16.482;2023-04-25T07:44:03;98997.41;;;13.90;65.98
35519;BME280;21627;48.216;16.482;2023-04-25T07:46:30;98984.16;;;13.99;67.78
35519;BME280;21627;48.216;16.482;2023-04-25T07:48:57;98994.50;;;14.00;67.82
35519;BME280;21627;48.216;16.482;2023-04-25T07:51:24;98995.50;;;13.96;65.60
35519;BME280;21627;48.216;16.482;2023-04-25T07:53:52;98984.00;;;14.05;65.31
35519;BME280;21627;48.216;16.482;2023-04-25T07:56:19;98978.66;;;14.11;66.04
35519;BME280;21627;48.216;16.482;2023-04-25T07:58:46;98999.19;;;14.20;66.57
35519;BME280;21627;48.216;16.482;2023-04-25T08:01:14;98986.59;;;14.36;65.38
35519;BME280;21627;48.216;16.482;2023-04-25T08:03:41;98989.28;;;14.33;64.13
35519;BME280;21627;48.216;16.482;2023-04-25T08:06:08;98989.91;;;14.43;63.53
35519;BME280;21627;48.216;16.482;2023-04-25T08:08:36;98986.38;;;14.45;66.11
35519;BME280;21627;48.216;16.482;2023-04-25T08:11:03;98976.38;;;14.61;64.37
35519;BME280;21627;48.216;16.482;2023-04-25T08:13:30;98976.16;;;14.69;64.70
35519;BME280;21627;48.216;16.482;2023-04-25T08:15:57;98968.16;;;14.77;64.64
35519;BME280;21627;48.216;16.482;2023-04-25T08:18:24;98979.84;;;14.91;61.49
35519;BME280;21627;48.216;16.482;2023-04-25T08:20:51;98981.38;;;14.99;61.41
35519;BME280;21627;48.216;16.482;2023-04-25T08:23:19;98974.34;;;15.02;61.77
35519;BME280;21627;48.216;16.482;2023-04-25T08:25:46;98976.84;;;15.05;59.06
35519;BME280;21627;48.216;16.482;2023-04-25T08:28:14;98961.00;;;15.11;63.64
35519;BME280;21627;48.216;16.482;2023-04-25T08:30:41;98983.53;;;15.41;60.08
35519;BME280;21627;48.216;16.482;2023-04-25T08:33:09;98976.28;;;15.50;58.70
35519;BME280;21627;48.216;16.482;2023-04-25T08:35:38;98968.72;;;15.69;55.53
35519;BME280;21627;48.216;16.482;2023-04-25T08:38:05;98978.81;;;15.80;59.26
35519;BME280;21627;48.216;16.482;2023-04-25T08:40:38;98969.72;;;15.92;56.46
35519;BME280;21627;48.216;16.482;2023-04-25T08:43:06;98968.16;;;16.11;61.07
35519;BME280;21627;48.216;16.482;2023-04-25T08:45:39;98960.53;;;16.30;57.78
35519;BME280;21627;48.216;16.482;2023-04-25T08:48:15;98954.53;;;16.28;52.12
35519;BME280;21627;48.216;16.482;2023-04-25T08:50:54;98965.56;;;16.11;53.62
35519;BME280;21627;48.216;16.482;2023-04-25T08:53:26;98959.84;;;16.25;56.96
35519;BME280;21627;48.216;16.482;2023-04-25T08:55:56;98952.69;;;16.30;53.61
35519;BME280;21627;48.216;16.482;2023-04-25T08:58:24;98955.59;;;16.22;57.12
35519;BME280;21627;48.216;16.482;2023-04-25T09:00:52;98958.38;;;16.18;54.60
35519;BME280;21627;48.216;16.482;2023-04-25T09:03:19;98975.09;;;15.61;54.71
35519;BME280;21627;48.216;16.482;2023-04-25T09:05:47;98964.31;;;15.71;56.65
35519;BME280;21627;48.216;16.482;2023-04-25T09:08:14;98959.13;;;15.96;55.52
35519;BME280;21627;48.216;16.482;2023-04-25T09:10:41;98953.91;;;16.45;56.14
35519;BME280;21627;48.216;16.482;2023-04-25T09:13:14;98960.84;;;16.46;53.89
35519;BME280;21627;48.216;16.482;2023-04-25T09:15:52;98958.66;;;16.57;55.12
35519;BME280;21627;48.216;16.482;2023-04-25T09:18:31;98955.25;;;16.55;53.45
35519;BME280;21627;48.216;16.482;2023-04-25T09:21:10;98956.72;;;16.40;56.55
35519;BME280;21627;48.216;16.482;2023-04-25T09:23:44;98956.19;;;16.31;58.05
35519;BME280;21627;48.216;16.482;2023-04-25T09:26:20;98947.84;;;16.44;57.05
35519;BME280;21627;48.216;16.482;2023-04-25T09:28:47;98939.81;;;16.73;55.98
35519;BME280;21627;48.216;16.482;2023-04-25T09:31:24;98938.16;;;17.16;55.69
35519;BME280;21627;48.216;16.482;2023-04-25T09:34:00;98955.31;;;16.79;53.14
35519;BME280;21627;48.216;16.482;2023-04-25T09:36:30;98960.59;;;16.52;51.95
35519;BME280;21627;48.216;16.482;2023-04-25T09:38:59;98962.94;;;16.36;51.50
35519;BME280;21627;48.216;16.482;2023-04-25T09:41:28;98957.22;;;16.25;52.67
35519;BME280;21627;48.216;16.482;2023-04-25T09:43:57;98964.56;;;16.15;55.30
35519;BME280;21627;48.216;16.482;2023-04-25T09:46:35;98962.22;;;16.08;56.38
35519;BME280;21627;48.216;16.482;2023-04-25T09:49:07;98962.63;;;15.70;56.01
35519;BME280;21627;48.216;16.482;2023-04-25T09:51:35;98975.13;;;15.59;55.32
35519;BME280;21627;48.216;16.482;2023-04-25T09:54:02;98977.34;;;15.17;57.99
35519;BME280;21627;48.216;16.482;2023-04-25T09:56:36;98963.63;;;15.11;59.06
35519;BME280;21627;48.216;16.482;2023-04-25T09:59:05;98973.75;;;14.92;60.96
35519;BME280;21627;48.216;16.482;2023-04-25T10:01:34;98980.88;;;14.86;61.73
35519;BME280;21627;48.216;16.482;2023-04-25T10:04:03;98969.41;;;14.93;63.03
35519;BME280;21627;48.216;16.482;2023-04-25T10:06:34;98970.22;;;14.65;62.94
35519;BME280;21627;48.216;16.482;2023-04-25T10:09:02;98983.00;;;14.73;62.57
35519;BME280;21627;48.216;16.482;2023-04-25T10:11:31;98997.91;;;14.68;62.24
35519;BME280;21627;48.216;16.482;2023-04-25T10:14:00;98995.94;;;14.43;67.39
35519;BME280;21627;48.216;16.482;2023-04-25T10:16:28;99012.47;;;14.10;69.33
35519;BME280;21627;48.216;16.482;2023-04-25T10:18:55;99010.75;;;13.76;81.02
35519;BME280;21627;48.216;16.482;2023-04-25T10:21:24;99007.78;;;13.16;84.90
35519;BME280;21627;48.216;16.482;2023-04-25T10:23:54;99004.13;;;12.85;85.31
35519;BME280;21627;48.216;16.482;2023-04-25T10:26:22;99003.78;;;12.60;92.26
35519;BME280;21627;48.216;16.482;2023-04-25T10:29:01;98992.47;;;12.65;92.29
35519;BME280;21627;48.216;16.482;2023-04-25T10:31:32;98979.34;;;12.71;94.86
35519;BME280;21627;48.216;16.482;2023-04-25T10:34:00;98978.78;;;12.97;95.78
35519;BME280;21627;48.216;16.482;2023-04-25T10:36:32;98975.69;;;13.20;88.84
35519;BME280;21627;48.216;16.482;2023-04-25T10:39:04;98963.97;;;13.76;92.50
35519;BME280;21627;48.216;16.482;2023-04-25T10:41:46;98971.41;;;14.22;77.13
35519;BME280;21627;48.216;16.482;2023-04-25T10:44:15;98967.03;;;14.56;69.25
35519;BME280;21627;48.216;16.482;2023-04-25T10:46:44;98965.50;;;14.78;67.47
35519;BME280;21627;48.216;16.482;2023-04-25T10:49:41;98955.53;;;15.21;60.08
35519;BME280;21627;48.216;16.482;2023-04-25T10:54:58;98945.41;;;15.91;64.38
35519;BME280;21627;48.216;16.482;2023-04-25T10:57:39;98961.75;;;16.20;58.88
35519;BME280;21627;48.216;16.482;2023-04-25T11:00:12;98959.38;;;16.14;57.32
35519;BME280;21627;48.216;16.482;2023-04-25T11:02:57;98954.22;;;16.12;52.27
35519;BME280;21627;48.216;16.482;2023-04-25T11:05:34;98953.91;;;15.96;51.31
35519;BME280;21627;48.216;16.482;2023-04-25T11:08:27;98947.28;;;15.88;53.78
35519;BME280;21627;48.216;16.482;2023-04-25T11:11:01;98940.66;;;16.02;52.86
35519;BME280;21627;48.216;16.482;2023-04-25T11:13:29;98923.00;;;16.34;54.71
35519;BME280;21627;48.216;16.482;2023-04-25T11:15:57;98929.97;;;16.57;50.29
35519;BME280;21627;48.216;16.482;2023-04-25T11:18:42;98930.97;;;16.78;51.83
35519;BME280;21627;48.216;16.482;2023-04-25T11:21:10;98919.28;;;16.87;49.41
35519;BME280;21627;48.216;16.482;2023-04-25T11:23:37;98919.00;;;17.17;49.31
35519;BME280;21627;48.216;16.482;2023-04-25T11:26:04;98909.59;;;17.33;50.44
35519;BME280;21627;48.216;16.482;2023-04-25T11:28:32;98926.28;;;17.51;52.54
35519;BME280;21627;48.216;16.482;2023-04-25T11:30:59;98927.81;;;17.77;54.05
35519;BME280;21627;48.216;16.482;2023-04-25T11:33:26;98920.34;;;17.47;53.17
35519;BME280;21627;48.216;16.482;2023-04-25T11:35:56;98923.72;;;17.07;53.04
35519;BME280;21627;48.216;16.482;2023-04-25T11:38:25;98934.59;;;16.73;53.72
35519;BME280;21627;48.216;16.482;2023-04-25T11:40:55;98947.78;;;16.46;54.96
35519;BME280;21627;48.216;16.482;2023-04-25T11:43:22;98942.63;;;16.21;56.04
35519;BME280;21627;48.216;16.482;2023-04-25T11:45:52;98964.72;;;15.86;61.05
35519;BME280;21627;48.216;16.482;2023-04-25T11:48:19;98964.06;;;15.52;64.97
35519;BME280;21627;48.216;16.482;2023-04-25T11:51:07;98954.38;;;15.29;71.67
35519;BME280;21627;48.216;16.482;2023-04-25T11:53:35;98974.41;;;14.99;73.16
35519;BME280;21627;48.216;16.482;2023-04-25T11:56:10;98985.06;;;14.62;78.34
35519;BME280;21627;48.216;16.482;2023-04-25T11:59:04;98987.53;;;14.02;66.96
35519;BME280;21627;48.216;16.482;2023-04-25T12:01:40;98979.72;;;14.04;72.16
35519;BME280;21627;48.216;16.482;2023-04-25T12:04:17;98974.56;;;14.01;71.79
35519;BME280;21627;48.216;16.482;2023-04-25T12:06:46;98990.97;;;14.03;71.72
35519;BME280;21627;48.216;16.482;2023-04-25T12:09:21;98973.59;;;14.05;69.72
35519;BME280;21627;48.216;16.482;2023-04-25T12:11:54;98978.81;;;14.05;67.25
35519;BME280;21627;48.216;16.482;2023-04-25T12:14:31;98964.13;;;14.02;68.49
35519;BME280;21627;48.216;16.482;2023-04-25T12:17:01;98979.53;;;14.10;65.04
35519;BME280;21627;48.216;16.482;2023-04-25T12:19:37;98976.78;;;13.83;64.82
35519;BME280;21627;48.216;16.482;2023-04-25T12:22:22;98962.28;;;13.73;65.79
35519;BME280;21627;48.216;16.482;2023-04-25T12:24:50;98970.06;;;13.75;65.01
35519;BME280;21627;48.216;16.482;2023-04-25T12:27:17;98969.97;;;14.11;64.79
35519;BME280;21627;48.216;16.482;2023-04-25T12:29:55;98967.09;;;14.54;63.14
35519;BME280;21627;48.216;16.482;2023-04-25T12:32:23;98962.38;;;15.23;64.67
35519;BME280;21627;48.216;16.482;2023-04-25T12:34:50;98964.06;;;16.04;61.43
35519;BME280;21627;48.216;16.482;2023-04-25T12:37:17;98952.09;;;16.71;66.99
35519;BME280;21627;48.216;16.482;2023-04-25T12:39:45;98950.81;;;16.82;54.80
35519;BME280;21627;48.216;16.482;2023-04-25T12:42:12;98941.56;;;16.96;56.72
35519;BME280;21627;48.216;16.482;2023-04-25T12:44:39;98936.41;;;17.59;58.28
35519;BME280;21627;48.216;16.482;2023-04-25T12:47:07;98954.13;;;17.94;52.24
35519;BME280;21627;48.216;16.482;2023-04-25T12:49:35;98951.25;;;17.58;51.52
35519;BME280;21627;48.216;16.482;2023-04-25T12:52:02;98953.34;;;17.50;51.77
35519;BME280;21627;48.216;16.482;2023-04-25T12:54:29;98952.50;;;17.05;51.72
35519;BME280;21627;48.216;16.482;2023-04-25T12:56:56;98959.34;;;17.32;50.60
35519;BME280;21627;48.216;16.482;2023-04-25T12:59:24;98958.25;;;17.58;51.32
35519;BME280;21627;48.216;16.482;2023-04-25T13:01:51;98953.38;;;18.11;47.50
35519;BME280;21627;48.216;16.482;2023-04-25T13:04:18;98951.31;;;18.20;48.34